VNKT METAR

Available data for VNKT from the past hour
KATHMANDU INTL A
Metar
VNKT 232150Z 28004KT 7000 FEW008 SCT030 BKN100 21/20 Q1007 NOSIG

21:50 UTC

Wind: 280° 4kt

Visibility: 7000 m

Sky: FEW 800 ft

Temp: 21 deg C / 69.8 deg F

Dewpoint: 20 deg C / 68 deg F

Pressure: 1007 hPa

TAF
TAF VNKT 231700Z 2318/2418 00000KT 6000 FEW015 SCT025 BKN100 BECMG 2400/2402 5000 -RA/BR FEW015 SCT030 BKN100 BECMG 2404/2405 13005KT 7000 FEW020 SCT030 BKN100 PROB40 2408/2412 23008KT 5000 -SHRA/RA FEW025CB OVC090 BECMG 2414/2415 00000KT 6000 FEW015 SCT030 BKN100

WARNING: the data listed ¬†above is for informational purposes only and should be confirmed from official sources. Data presented here on this page are fetched from¬†Aviation weather data from NOAA’s Aviation Digital Data Service.

How to see the Details of METAR Reading.

Click on the Triangle beside of the Word METAR.(Refer to Fig.1)

VNKTmetar